Terminal Aerodrome Forecast
Issued by NWS Bismarck, ND

Home | Current Version | Previous Version | Text Only | Print | Product List | Glossary On
Versions: 1 2 3 4 5 6 7 8 9 10 11 12 13 14 15 16 17 18 19 20 21 22
000
FTUS43 KBIS 212120 AAB
TAFBIS
TAF AMD
KBIS 212120Z 2121/2218 11005KT P6SM SCT045
     FM212200 30010KT P6SM VCTS FEW080CB SCT250
     FM220100 32007KT P6SM SKC
     FM221300 28006KT P6SM FEW140 FEW250
     FM221600 30012KT P6SM SKC=

USA.gov is the U.S. government's official web portal to all federal, state and local government web resources and services.